Time;durP1;ratioP1;P1;durP2;ratioP2;P2;SDS_P1;SDS_P2;PMS_P1;PMS_P2;Temp;Humidity;BMP_temperature;BMP_pressure;BME280_temperature;BME280_humidity;BME280_pressure;Samples;Min_cycle;Max_cycle;Signal;HPM_P1;HPM_P2
2021/12/04 00:00:44;;;;;;;7.68;4.18;;;;;;;3.80;66.10;99715.47;4148631;28;20367;-61
2021/12/04 00:02:48;;;;;;;6.07;4.07;;;;;;;3.78;65.69;99716.25;4150312;28;20042;-61
2021/12/04 00:04:53;;;;;;;8.30;4.57;;;;;;;3.74;66.63;99712.75;4149984;28;20041;-60
2021/12/04 00:06:56;;;;;;;6.70;4.63;;;;;;;3.77;66.50;99711.97;4148314;28;20061;-58
2021/12/04 00:09:04;;;;;;;8.63;4.28;;;;;;;3.76;66.03;99721.34;4150745;28;20050;-61
2021/12/04 00:11:07;;;;;;;6.80;4.25;;;;;;;3.77;66.16;99715.41;4150040;28;20566;-62
2021/12/04 00:13:10;;;;;;;8.02;5.40;;;;;;;3.65;66.44;99708.19;4163143;28;20045;-62
2021/12/04 00:15:13;;;;;;;5.63;3.85;;;;;;;3.74;66.48;99712.75;4160112;28;20048;-59
2021/12/04 00:17:16;;;;;;;6.75;4.35;;;;;;;3.77;66.55;99706.81;4148214;28;20046;-58
2021/12/04 00:19:22;;;;;;;9.02;4.32;;;;;;;3.76;66.11;99710.22;4150752;28;20056;-61
2021/12/04 00:21:25;;;;;;;6.68;3.90;;;;;;;3.74;66.40;99706.69;4134998;28;20089;-61
2021/12/04 00:23:28;;;;;;;9.20;4.45;;;;;;;3.75;66.52;99717.06;4146908;28;20108;-61
2021/12/04 00:25:31;;;;;;;8.98;4.30;;;;;;;3.78;66.17;99700.81;4148546;28;20125;-61
2021/12/04 00:27:36;;;;;;;9.25;4.00;;;;;;;3.75;66.18;99696.50;4151424;28;20062;-58
2021/12/04 00:29:39;;;;;;;7.63;3.95;;;;;;;3.77;66.01;99702.53;4151969;28;20560;-57
2021/12/04 00:31:47;;;;;;;7.70;4.38;;;;;;;3.79;66.67;99700.88;4154322;28;20517;-60
2021/12/04 00:33:50;;;;;;;6.38;4.03;;;;;;;3.81;65.88;99698.34;4149549;28;20782;-60
2021/12/04 00:35:58;;;;;;;5.97;4.35;;;;;;;3.77;66.19;99693.97;4164352;28;20045;-60
2021/12/04 00:43:15;;;;;;;8.10;4.43;;;;;;;3.76;66.50;99693.06;4149194;28;20042;-61
2021/12/04 00:43:21;;;;;;;5.18;3.33;;;;;;;3.79;66.90;99688.00;4147252;28;20072;-59
2021/12/04 00:50:07;;;;;;;9.13;4.25;;;;;;;3.76;66.18;99676.78;4146854;28;20498;-60
2021/12/04 00:52:11;;;;;;;7.63;4.57;;;;;;;3.87;66.28;99682.22;4146381;28;20038;-59
2021/12/04 00:54:14;;;;;;;5.93;3.97;;;;;;;3.86;66.14;99685.66;4147558;28;20037;-58
2021/12/04 00:56:18;;;;;;;8.45;4.65;;;;;;;3.86;66.78;99676.22;4163172;28;20040;-61
2021/12/04 00:58:21;;;;;;;6.70;4.78;;;;;;;3.87;66.79;99671.94;4152927;28;20053;-62
2021/12/04 01:00:25;;;;;;;9.02;4.57;;;;;;;3.89;67.02;99675.44;4147196;28;20041;-62
2021/12/04 01:02:28;;;;;;;8.55;4.80;;;;;;;3.92;66.42;99672.97;4147658;28;20084;-61
2021/12/04 01:04:32;;;;;;;8.23;4.10;;;;;;;3.90;66.88;99674.59;4148619;28;20049;-61
2021/12/04 01:06:36;;;;;;;7.95;4.55;;;;;;;3.91;66.76;99672.06;4162649;28;20046;-60
2021/12/04 01:08:41;;;;;;;6.95;4.38;;;;;;;3.91;66.64;99678.91;4149067;28;20042;-61
2021/12/04 01:10:44;;;;;;;;;;;;;;;3.78;67.21;99673.44;4151768;28;20041;-61
2021/12/04 01:12:49;;;;;;;8.05;4.47;;;;;;;3.86;66.58;99672.78;4159115;28;19944;-61
2021/12/04 01:14:52;;;;;;;10.13;5.05;;;;;;;3.86;66.85;99672.78;4154711;28;20503;-60
2021/12/04 01:16:56;;;;;;;9.50;4.57;;;;;;;3.83;67.18;99673.56;4159479;28;20196;-61
2021/12/04 01:19:02;;;;;;;8.00;4.47;;;;;;;3.83;67.11;99671.84;4157601;28;20046;-59
2021/12/04 01:21:05;;;;;;;8.07;4.65;;;;;;;3.79;67.55;99659.75;4140506;28;20042;-62
2021/12/04 01:23:08;;;;;;;8.52;4.55;;;;;;;3.77;67.86;99660.53;4153553;28;20249;-61
2021/12/04 01:25:13;;;;;;;8.30;4.72;;;;;;;3.75;68.08;99660.50;4146752;28;20042;-62
2021/12/04 01:27:16;;;;;;;9.70;5.13;;;;;;;3.75;68.02;99657.94;4155070;28;20091;-62
2021/12/04 01:29:19;;;;;;;7.18;4.57;;;;;;;3.78;67.35;99657.13;4159771;28;20044;-62
2021/12/04 01:31:22;;;;;;;6.70;4.65;;;;;;;3.82;67.26;99659.81;4148226;28;20200;-61
2021/12/04 01:33:26;;;;;;;6.95;5.00;;;;;;;3.77;67.99;99655.41;4156904;28;20080;-62
2021/12/04 01:35:30;;;;;;;9.07;4.85;;;;;;;3.76;67.45;99651.94;4149012;28;20041;-63
2021/12/04 01:37:33;;;;;;;9.60;4.53;;;;;;;3.71;68.07;99658.66;4147071;28;20052;-60
2021/12/04 01:39:36;;;;;;;5.90;4.22;;;;;;;3.71;67.79;99650.97;4146682;28;20116;-61
2021/12/04 01:41:41;;;;;;;7.57;5.10;;;;;;;3.75;68.04;99652.78;4160788;28;20498;-60
2021/12/04 01:43:44;;;;;;;7.05;4.75;;;;;;;3.76;67.80;99654.50;4149353;28;20088;-60
2021/12/04 01:45:47;;;;;;;7.80;4.40;;;;;;;3.80;67.71;99648.63;4146326;28;20046;-59
2021/12/04 01:47:50;;;;;;;6.25;4.47;;;;;;;3.78;68.09;99649.41;4150698;28;20034;-61
2021/12/04 01:49:54;;;;;;;8.82;4.68;;;;;;;3.75;67.88;99647.66;4154491;28;20045;-59
2021/12/04 01:51:57;;;;;;;8.25;5.25;;;;;;;3.79;67.71;99652.03;4151917;28;20459;-58
2021/12/04 01:54:00;;;;;;;6.43;4.78;;;;;;;3.78;68.29;99651.97;4142227;28;20049;-60
2021/12/04 01:56:04;;;;;;;8.57;4.85;;;;;;;3.83;67.92;99650.44;4160192;28;20057;-60
2021/12/04 01:58:08;;;;;;;8.27;4.43;;;;;;;3.86;67.24;99640.22;4161754;28;20426;-61
2021/12/04 02:00:12;;;;;;;6.88;4.53;;;;;;;3.84;67.41;99639.28;4146357;28;20045;-60
2021/12/04 02:02:15;;;;;;;8.80;5.25;;;;;;;3.83;67.24;99641.00;4150156;28;20103;-59
2021/12/04 02:04:19;;;;;;;7.57;4.88;;;;;;;3.84;67.51;99639.28;4148067;28;20061;-60
2021/12/04 02:06:22;;;;;;;8.50;4.93;;;;;;;3.86;68.09;99649.66;4150033;28;20072;-61
2021/12/04 02:08:25;;;;;;;7.50;4.63;;;;;;;3.91;67.36;99640.34;4152711;28;20030;-60
2021/12/04 02:10:28;;;;;;;8.00;4.90;;;;;;;3.93;67.66;99634.44;4165362;28;20056;-59
2021/12/04 02:12:32;;;;;;;8.77;5.38;;;;;;;3.91;66.94;99632.63;4160400;28;20095;-61
2021/12/04 02:14:38;;;;;;;9.77;5.30;;;;;;;3.84;67.62;99624.75;4161585;28;20045;-60
2021/12/04 02:16:41;;;;;;;7.55;5.45;;;;;;;3.91;67.15;99632.63;4161582;28;20053;-59
2021/12/04 02:18:45;;;;;;;7.85;4.68;;;;;;;3.93;67.20;99636.09;4153039;28;20069;-61
2021/12/04 02:20:50;;;;;;;7.28;5.35;;;;;;;3.94;67.55;99633.63;4158228;28;20042;-61
2021/12/04 02:22:53;;;;;;;7.20;4.93;;;;;;;3.93;66.75;99636.09;4154961;28;20050;-58
2021/12/04 02:24:56;;;;;;;9.80;6.55;;;;;;;3.93;66.81;99631.84;4136646;28;20050;-58
2021/12/04 02:26:59;;;;;;;7.72;5.20;;;;;;;3.92;66.67;99635.25;4152721;28;20052;-61
2021/12/04 02:29:02;;;;;;;9.10;5.30;;;;;;;3.94;66.73;99631.03;4152619;28;20049;-60
2021/12/04 02:31:05;;;;;;;8.57;4.88;;;;;;;3.94;66.96;99620.75;4150437;28;20073;-62
2021/12/04 02:33:12;;;;;;;8.73;5.38;;;;;;;3.97;66.89;99627.66;4149931;28;20096;-57
2021/12/04 02:35:17;;;;;;;8.05;4.88;;;;;;;3.97;66.50;99625.97;4149085;28;20046;-59
2021/12/04 02:37:21;;;;;;;9.43;5.20;;;;;;;3.98;67.42;99627.69;4164569;28;20045;-59
2021/12/04 02:39:27;;;;;;;9.30;4.88;;;;;;;3.97;66.82;99633.69;4148505;28;20061;-59
2021/12/04 02:41:30;;;;;;;9.45;4.82;;;;;;;4.03;67.18;99617.56;4152294;28;20046;-60
2021/12/04 02:43:35;;;;;;;9.85;5.03;;;;;;;4.08;66.92;99608.25;4153974;28;20038;-61
2021/12/04 02:45:38;;;;;;;8.55;4.88;;;;;;;4.02;67.16;99615.81;4163894;28;20407;-61
2021/12/04 02:47:41;;;;;;;7.30;4.55;;;;;;;4.01;67.09;99599.47;4162587;28;20563;-61
2021/12/04 02:49:44;;;;;;;8.30;5.03;;;;;;;4.05;67.20;99600.47;4158583;28;20443;-60
2021/12/04 02:51:47;;;;;;;7.38;4.88;;;;;;;4.10;67.18;99601.44;4149701;28;20037;-60
2021/12/04 02:53:51;;;;;;;7.05;4.70;;;;;;;4.05;67.27;99591.88;4149833;28;20034;-59
2021/12/04 02:55:54;;;;;;;7.50;4.30;;;;;;;4.05;67.31;99590.16;4155721;28;20125;-60
2021/12/04 02:57:58;;;;;;;6.80;4.53;;;;;;;4.04;67.40;99591.00;4161132;28;20092;-61
2021/12/04 03:00:01;;;;;;;7.40;4.50;;;;;;;4.09;67.62;99586.84;4149220;28;20046;-63
2021/12/04 03:02:05;;;;;;;7.07;4.65;;;;;;;4.10;67.57;99577.41;4157540;28;20465;-63
2021/12/04 03:04:09;;;;;;;8.20;4.75;;;;;;;4.13;66.93;99573.25;4163795;28;20503;-62
2021/12/04 03:06:12;;;;;;;5.38;4.10;;;;;;;4.10;66.73;99572.28;4162674;28;20718;-60
2021/12/04 03:08:15;;;;;;;7.85;4.88;;;;;;;4.08;66.81;99554.25;4148246;28;20045;-61
2021/12/04 03:10:20;;;;;;;10.10;5.72;;;;;;;4.11;66.77;99551.75;4160567;28;20076;-59
2021/12/04 03:12:25;;;;;;;7.15;4.72;;;;;;;4.09;67.27;99556.00;4164407;28;20167;-57
2021/12/04 03:14:28;;;;;;;7.75;5.07;;;;;;;4.14;66.98;99544.09;4165753;28;20064;-60
2021/12/04 03:16:31;;;;;;;8.38;5.15;;;;;;;4.12;67.37;99543.19;4151785;28;20136;-59
2021/12/04 03:18:34;;;;;;;6.63;4.55;;;;;;;4.20;67.22;99553.66;4149103;28;20046;-59
2021/12/04 03:20:42;;;;;;;8.82;4.95;;;;;;;4.20;66.95;99548.53;4164665;28;20037;-59
2021/12/04 03:22:46;;;;;;;8.18;4.55;;;;;;;4.21;67.14;99549.41;4160678;28;20041;-59
2021/12/04 03:24:49;;;;;;;6.95;5.05;;;;;;;4.19;66.95;99545.09;4149507;28;20149;-59
2021/12/04 03:26:55;;;;;;;8.20;5.30;;;;;;;4.24;67.19;99541.78;4157221;28;20034;-61
2021/12/04 03:29:02;;;;;;;25.05;6.82;;;;;;;4.22;67.32;99544.31;4150010;28;20038;-59
2021/12/04 03:31:10;;;;;;;7.82;4.57;;;;;;;4.23;66.74;99540.03;4161722;28;20491;-62
2021/12/04 03:42:42;;;;;;;9.50;5.40;;;;;;;4.38;67.33;99537.84;4146683;28;20639;-58
2021/12/04 03:44:46;;;;;;;8.45;5.22;;;;;;;4.40;67.11;99535.31;4153477;28;20046;-59
2021/12/04 03:46:50;;;;;;;7.70;4.97;;;;;;;4.43;67.30;99535.38;4156712;28;20039;-60
2021/12/04 03:48:53;;;;;;;7.38;5.05;;;;;;;4.42;67.12;99537.06;4151245;28;20041;-62
2021/12/04 03:50:56;;;;;;;8.82;5.30;;;;;;;4.45;67.31;99523.41;4151826;28;20124;-59
2021/12/04 03:52:59;;;;;;;9.82;5.88;;;;;;;4.45;67.36;99523.41;4153070;28;20042;-59
2021/12/04 03:55:04;;;;;;;8.45;5.40;;;;;;;4.43;67.88;99518.22;4155154;28;20042;-59
2021/12/04 03:57:07;;;;;;;8.00;5.28;;;;;;;4.44;67.38;99521.66;4152972;28;20468;-60
2021/12/04 03:59:12;;;;;;;7.43;4.78;;;;;;;4.45;67.69;99521.69;4150394;28;20172;-61
2021/12/04 04:01:15;;;;;;;8.77;5.00;;;;;;;4.46;67.89;99525.16;4147694;28;20132;-60
2021/12/04 04:03:18;;;;;;;7.38;5.47;;;;;;;4.44;67.84;99524.22;4148129;28;20046;-59
2021/12/04 04:05:21;;;;;;;6.80;5.07;;;;;;;4.41;68.11;99530.19;4156443;23;20494;-57
2021/12/04 04:07:24;;;;;;;7.78;5.22;;;;;;;4.42;68.07;99524.19;4146660;28;20037;-58
2021/12/04 04:09:28;;;;;;;9.82;5.63;;;;;;;4.41;68.57;99522.47;4141115;28;20046;-56
2021/12/04 04:11:35;;;;;;;8.60;6.05;;;;;;;4.42;69.17;99524.19;4131158;28;20066;-57
2021/12/04 04:13:42;;;;;;;8.13;5.50;;;;;;;4.35;69.18;99519.72;4132229;28;20427;-56
2021/12/04 04:15:46;;;;;;;9.98;5.80;;;;;;;4.36;68.79;99519.75;4131533;28;20100;-57
2021/12/04 04:17:49;;;;;;;7.93;6.10;;;;;;;4.34;68.72;99521.44;4131893;28;20049;-59
2021/12/04 04:19:52;;;;;;;7.63;5.90;;;;;;;4.31;69.33;99513.66;4130291;28;20061;-59
2021/12/04 04:21:57;;;;;;;11.00;5.93;;;;;;;4.29;69.47;99512.75;4131701;28;20050;-58
2021/12/04 04:24:00;;;;;;;;;;;;;;;4.14;69.90;99515.81;4131360;28;20039;-58
2021/12/04 04:26:03;;;;;;;8.13;5.43;;;;;;;4.12;69.85;99507.19;4130675;28;19922;-60
2021/12/04 04:28:06;;;;;;;9.98;5.85;;;;;;;4.18;70.19;99509.03;4131825;28;20046;-58
2021/12/04 04:30:15;;;;;;;11.48;6.30;;;;;;;4.22;70.17;99509.97;4129102;28;20444;-60
2021/12/04 04:32:19;;;;;;;8.80;6.40;;;;;;;4.15;70.52;99494.41;4132044;28;20089;-59
2021/12/04 04:34:26;;;;;;;8.55;6.13;;;;;;;4.15;70.23;99509.84;4131160;28;20117;-61
2021/12/04 04:36:43;;;;;;;8.77;5.43;;;;;;;4.17;70.26;99510.72;4130505;28;20050;-58
2021/12/04 04:38:54;;;;;;;9.57;6.13;;;;;;;4.18;70.62;99519.34;4129770;28;20049;-59
2021/12/04 04:57:36;;;;;;;10.60;6.60;;;;;;;4.08;71.02;99502.81;4131228;28;20062;-57
2021/12/04 04:59:54;;;;;;;9.23;6.95;;;;;;;4.07;71.09;99501.06;4132168;28;20040;-58
2021/12/04 05:11:35;;;;;;;10.77;5.90;;;;;;;4.05;70.74;99502.72;4126359;28;20499;-60
2021/12/04 05:13:39;;;;;;;12.07;6.20;;;;;;;4.03;71.22;99494.13;4120751;28;20038;-59
2021/12/04 05:15:54;;;;;;;9.93;6.68;;;;;;;4.09;70.89;99494.25;4130289;28;20129;-59
2021/12/04 05:18:09;;;;;;;10.70;6.68;;;;;;;4.07;71.06;99501.06;4115944;28;20051;-58
2021/12/04 05:20:20;;;;;;;10.70;6.22;;;;;;;4.09;70.74;99493.38;4129824;28;20042;-59
2021/12/04 05:22:24;;;;;;;9.05;6.43;;;;;;;4.12;71.03;99493.47;4130704;28;20046;-60
2021/12/04 05:24:27;;;;;;;10.10;7.03;;;;;;;4.12;70.96;99508.91;4130352;28;20096;-60
2021/12/04 05:26:30;;;;;;;9.90;6.28;;;;;;;4.12;71.14;99501.19;4130278;28;20301;-60
2021/12/04 05:28:34;;;;;;;8.95;6.03;;;;;;;4.11;70.62;99492.59;4130965;28;20042;-59
2021/12/04 05:30:38;;;;;;;10.18;6.43;;;;;;;4.12;70.97;99489.19;4129421;28;20042;-58
2021/12/04 05:32:41;;;;;;;10.50;5.95;;;;;;;4.13;70.80;99490.94;4131004;28;20066;-59
2021/12/04 05:34:44;;;;;;;8.85;6.50;;;;;;;4.10;70.33;99490.84;4130017;28;20439;-57
2021/12/04 05:36:48;;;;;;;8.82;6.00;;;;;;;4.11;70.70;99492.59;4129914;28;20046;-59
2021/12/04 05:38:51;;;;;;;8.70;6.07;;;;;;;4.08;70.50;99486.50;4130079;28;20408;-60
2021/12/04 05:40:54;;;;;;;11.38;6.05;;;;;;;4.09;70.78;99489.13;4129023;28;20042;-58
2021/12/04 05:43:01;;;;;;;8.52;6.20;;;;;;;4.10;70.83;99490.84;4130083;28;20389;-59
2021/12/04 05:45:08;;;;;;;8.43;6.20;;;;;;;4.11;70.96;99487.44;4121362;28;20452;-59
2021/12/04 05:47:18;;;;;;;11.05;6.13;;;;;;;4.12;70.52;99491.75;4128329;28;20046;-58
2021/12/04 05:49:24;;;;;;;11.90;7.38;;;;;;;4.11;70.79;99487.44;4129665;28;20048;-60
2021/12/04 05:51:45;;;;;;;8.55;6.32;;;;;;;4.12;70.56;99494.34;4130402;28;20046;-60
2021/12/04 05:54:02;;;;;;;9.48;6.25;;;;;;;4.11;70.81;99487.44;4128884;28;20392;-60
2021/12/04 05:56:05;;;;;;;8.38;6.00;;;;;;;4.11;70.97;99489.16;4129985;28;20552;-60
2021/12/04 05:58:08;;;;;;;10.50;5.65;;;;;;;4.11;70.69;99489.16;4132912;28;20570;-60
2021/12/04 06:00:15;;;;;;;13.27;7.40;;;;;;;4.11;70.90;99490.00;4132946;28;20046;-60
2021/12/04 06:02:19;;;;;;;9.50;6.65;;;;;;;4.12;70.51;99489.19;4133439;28;20100;-60
2021/12/04 06:04:22;;;;;;;8.70;5.68;;;;;;;4.11;70.97;99487.44;4133003;28;20042;-60
2021/12/04 06:06:25;;;;;;;11.18;5.97;;;;;;;4.10;71.19;99488.25;4132016;28;20087;-60
2021/12/04 06:08:29;;;;;;;9.88;5.72;;;;;;;4.11;70.91;99486.59;4133661;28;20042;-60
2021/12/04 06:10:34;;;;;;;12.07;6.57;;;;;;;4.13;70.80;99479.75;4122256;28;20491;-60
2021/12/04 06:12:37;;;;;;;9.48;6.40;;;;;;;4.07;71.10;99475.31;4125793;28;20042;-59
2021/12/04 06:14:45;;;;;;;8.95;5.55;;;;;;;4.12;71.42;99473.75;4131129;28;20490;-59
2021/12/04 06:16:49;;;;;;;7.13;5.53;;;;;;;4.10;70.74;99452.25;4133413;28;20399;-59
2021/12/04 06:18:53;;;;;;;9.82;6.15;;;;;;;4.09;70.76;99463.41;4133087;28;20092;-59
2021/12/04 06:23:16;;;;;;;6.63;5.03;;;;;;;4.03;71.21;99463.25;4125808;28;20046;-60
2021/12/04 06:25:24;;;;;;;10.65;6.35;;;;;;;4.02;71.19;99467.50;4132739;28;20046;-60
2021/12/04 06:27:29;;;;;;;6.78;5.30;;;;;;;4.00;71.20;99463.16;4119988;28;20046;-60
2021/12/04 06:29:32;;;;;;;10.60;5.90;;;;;;;3.97;71.07;99468.22;4131786;28;20069;-58
2021/12/04 06:31:36;;;;;;;8.00;5.50;;;;;;;4.00;71.21;99465.72;4131857;28;20062;-60
2021/12/04 06:33:40;;;;;;;9.27;5.10;;;;;;;3.98;70.91;99469.97;4132756;28;20049;-60
2021/12/04 06:35:43;;;;;;;9.35;5.57;;;;;;;3.98;70.89;99465.69;4132277;28;20047;-59
2021/12/04 06:37:48;;;;;;;9.68;6.03;;;;;;;3.99;71.38;99467.44;4130847;28;20121;-58
2021/12/04 06:39:51;;;;;;;10.35;5.63;;;;;;;3.99;71.17;99466.56;4130834;28;20046;-59
2021/12/04 06:41:54;;;;;;;9.57;5.45;;;;;;;3.99;70.95;99471.72;4128339;28;20045;-60
2021/12/04 06:43:59;;;;;;;9.80;5.85;;;;;;;3.98;71.08;99470.81;4132165;28;20676;-59
2021/12/04 06:46:04;;;;;;;8.60;5.47;;;;;;;3.92;71.82;99462.97;4131602;28;20431;-60
2021/12/04 06:48:10;;;;;;;9.85;6.53;;;;;;;3.97;71.90;99473.38;4133280;28;20039;-59
2021/12/04 06:50:18;;;;;;;7.85;5.88;;;;;;;3.97;71.80;99473.38;4132077;28;20453;-60
2021/12/04 06:52:25;;;;;;;10.55;6.45;;;;;;;4.00;71.94;99474.31;4132642;28;20104;-58
2021/12/04 06:54:31;;;;;;;8.88;5.85;;;;;;;4.00;71.59;99464.03;4132568;28;20042;-58
2021/12/04 06:56:39;;;;;;;9.15;5.57;;;;;;;3.99;71.75;99464.00;4131875;28;20043;-58
2021/12/04 06:58:42;;;;;;;8.90;6.40;;;;;;;3.94;71.76;99463.91;4132457;28;20451;-57
2021/12/04 07:00:47;;;;;;;10.10;6.03;;;;;;;3.94;71.58;99466.47;4130942;28;20241;-56
2021/12/04 07:02:51;;;;;;;10.60;6.45;;;;;;;3.90;71.60;99474.03;4129611;28;20278;-59
2021/12/04 07:04:54;;;;;;;7.95;6.15;;;;;;;3.91;72.17;99475.78;4130928;28;20055;-59
2021/12/04 07:06:57;;;;;;;10.82;6.18;;;;;;;3.93;72.14;99476.69;4131829;28;20073;-59
2021/12/04 07:09:01;;;;;;;8.63;6.47;;;;;;;3.92;72.16;99485.25;4131449;28;20042;-58
2021/12/04 07:11:05;;;;;;;9.45;7.38;;;;;;;3.92;71.75;99486.13;4132009;28;20043;-57
2021/12/04 07:13:09;;;;;;;8.43;6.00;;;;;;;3.91;72.09;99488.66;4131481;28;20593;-59
2021/12/04 07:15:13;;;;;;;9.52;6.35;;;;;;;3.90;72.07;99489.47;4131660;28;20042;-59
2021/12/04 07:17:17;;;;;;;11.10;6.53;;;;;;;3.94;71.88;99488.72;4128270;28;20045;-60
2021/12/04 07:19:21;;;;;;;10.15;6.00;;;;;;;3.95;72.34;99491.31;4130433;28;20092;-60
2021/12/04 07:21:25;;;;;;;7.90;5.93;;;;;;;3.97;72.18;99491.38;4124847;28;20526;-58
2021/12/04 07:23:28;;;;;;;9.98;6.20;;;;;;;3.95;73.05;99491.31;4131887;28;20049;-55
2021/12/04 07:25:31;;;;;;;8.73;5.88;;;;;;;3.98;72.51;99499.13;4127527;28;20046;-51
2021/12/04 07:27:34;;;;;;;10.10;6.00;;;;;;;4.14;73.58;99492.66;4128486;28;20042;-55
2021/12/04 07:29:37;;;;;;;9.27;6.28;;;;;;;4.26;72.53;99486.06;4129463;28;20504;-61
2021/12/04 07:31:40;;;;;;;8.18;5.78;;;;;;;4.31;71.51;99492.22;4123450;28;20066;-60
2021/12/04 07:33:45;;;;;;;11.40;6.18;;;;;;;4.28;71.38;99487.84;4126137;28;20534;-61
2021/12/04 07:35:48;;;;;;;10.52;5.93;;;;;;;4.26;71.60;99488.66;4128373;28;20098;-59
2021/12/04 07:37:51;;;;;;;9.93;5.65;;;;;;;4.26;71.23;99480.94;4124948;28;20411;-60
2021/12/04 07:39:55;;;;;;;8.48;6.65;;;;;;;4.22;71.61;99480.00;4126128;28;20077;-63
2021/12/04 07:41:58;;;;;;;10.73;7.07;;;;;;;4.21;71.31;99485.09;4128385;28;20046;-61
2021/12/04 07:44:01;;;;;;;11.77;6.72;;;;;;;4.21;71.76;99474.81;4123222;28;20084;-61
2021/12/04 07:46:04;;;;;;;11.65;6.03;;;;;;;4.21;71.46;99480.81;4124217;28;20077;-59
2021/12/04 07:48:08;;;;;;;10.10;6.55;;;;;;;4.20;71.46;99479.06;4126084;28;20491;-59
2021/12/04 07:50:12;;;;;;;10.75;6.47;;;;;;;4.21;71.26;99480.81;4126588;28;20038;-61
2021/12/04 07:52:15;;;;;;;10.82;7.40;;;;;;;4.20;71.22;99486.78;4123583;28;20050;-62
2021/12/04 07:54:19;;;;;;;12.30;7.43;;;;;;;4.21;71.05;99485.97;4131294;28;20141;-62
2021/12/04 07:56:22;;;;;;;10.75;7.55;;;;;;;4.25;71.04;99492.03;4131519;28;20038;-62
2021/12/04 07:58:25;;;;;;;13.30;7.07;;;;;;;4.26;71.18;99491.22;4132143;28;20038;-61
2021/12/04 08:00:30;;;;;;;10.93;7.30;;;;;;;4.27;71.31;99482.69;4132511;28;20121;-60
2021/12/04 08:02:33;;;;;;;12.03;7.70;;;;;;;4.28;71.02;99484.38;4133837;28;20042;-60
2021/12/04 08:04:36;;;;;;;10.52;7.07;;;;;;;4.32;70.95;99491.34;4133531;28;20392;-61
2021/12/04 08:06:41;;;;;;;11.38;7.43;;;;;;;4.35;70.79;99491.44;4148240;28;20054;-61
2021/12/04 08:08:44;;;;;;;12.23;7.45;;;;;;;4.36;70.94;99496.59;4133104;28;20042;-63
2021/12/04 08:10:48;;;;;;;11.52;7.70;;;;;;;4.39;70.86;99488.09;4125214;28;20135;-59
2021/12/04 08:12:51;;;;;;;11.60;8.13;;;;;;;4.39;70.80;99488.09;4128220;28;20050;-60
2021/12/04 08:14:54;;;;;;;13.32;8.32;;;;;;;4.43;70.52;99483.91;4133017;28;20038;-58
2021/12/04 08:16:57;;;;;;;9.95;7.35;;;;;;;4.43;70.92;99479.63;4132996;28;20101;-61
2021/12/04 08:19:02;;;;;;;11.48;8.00;;;;;;;4.49;70.59;99482.31;4116142;28;20043;-60
2021/12/04 08:21:06;;;;;;;12.07;8.25;;;;;;;4.50;70.41;99484.06;4129776;28;20050;-59
2021/12/04 08:23:10;;;;;;;13.77;8.00;;;;;;;4.53;70.75;99485.84;4129445;28;20083;-60
2021/12/04 08:25:17;;;;;;;9.52;6.82;;;;;;;4.53;70.50;99480.72;4131399;28;20038;-60
2021/12/04 08:27:20;;;;;;;10.00;7.30;;;;;;;4.55;70.50;99485.03;4132858;28;20042;-59
2021/12/04 08:29:23;;;;;;;15.85;8.02;;;;;;;4.60;70.38;99487.75;4129544;28;20565;-61
2021/12/04 08:31:27;;;;;;;10.65;7.68;;;;;;;4.62;70.43;99485.19;4126936;28;20578;-59
2021/12/04 08:33:30;;;;;;;12.20;7.65;;;;;;;4.66;70.35;99487.88;4127925;28;20458;-60
2021/12/04 08:35:38;;;;;;;11.77;7.85;;;;;;;4.69;70.10;99481.91;4131291;28;20038;-62
2021/12/04 08:37:42;;;;;;;11.32;8.20;;;;;;;4.71;70.36;99481.09;4130884;28;20299;-60
2021/12/04 08:39:48;;;;;;;11.80;7.65;;;;;;;4.66;69.72;99482.72;4130188;28;20056;-60
2021/12/04 08:41:51;;;;;;;11.55;7.75;;;;;;;4.60;69.82;99489.41;4119465;28;20093;-61
2021/12/04 08:43:55;;;;;;;12.55;8.30;;;;;;;4.61;69.89;99486.03;4130719;28;20121;-61
2021/12/04 08:46:00;;;;;;;11.48;8.23;;;;;;;4.67;70.06;99488.72;4131280;28;20065;-60
2021/12/04 08:48:05;;;;;;;10.95;7.43;;;;;;;4.73;69.92;99483.69;4120875;28;20046;-61
2021/12/04 08:50:11;;;;;;;11.07;7.72;;;;;;;4.76;69.72;99486.38;4127337;28;20027;-63
2021/12/04 08:52:28;;;;;;;12.20;8.68;;;;;;;4.78;69.66;99487.25;4129387;28;20496;-62
2021/12/04 08:54:31;;;;;;;11.85;7.82;;;;;;;4.80;69.15;99490.72;4132902;28;20042;-60
2021/12/04 08:56:36;;;;;;;11.23;8.20;;;;;;;4.82;69.38;99483.91;4131229;28;20093;-62
2021/12/04 08:58:40;;;;;;;11.13;6.97;;;;;;;4.83;69.25;99484.78;4122023;28;20052;-58
2021/12/04 09:00:49;;;;;;;12.13;8.13;;;;;;;4.89;69.10;99480.66;4130041;28;20112;-58
2021/12/04 09:02:54;;;;;;;11.52;7.43;;;;;;;4.94;69.03;99485.88;4130775;28;20056;-56
2021/12/04 09:04:58;;;;;;;10.45;7.93;;;;;;;4.97;69.08;99487.66;4128815;28;20487;-58
2021/12/04 09:07:05;;;;;;;10.30;7.60;;;;;;;5.02;68.67;99478.31;4130465;28;20050;-58
2021/12/04 09:09:15;;;;;;;11.52;6.95;;;;;;;5.07;68.70;99485.28;4130028;28;20137;-59
2021/12/04 09:11:22;;;;;;;9.85;6.80;;;;;;;5.09;68.61;99485.34;4117866;28;20472;-57
2021/12/04 09:13:28;;;;;;;10.13;7.20;;;;;;;5.11;68.41;99486.25;4129038;28;20050;-56
2021/12/04 09:15:32;;;;;;;14.25;7.88;;;;;;;5.13;68.14;99489.72;4130552;28;20050;-57
2021/12/04 09:17:35;;;;;;;18.17;8.27;;;;;;;5.11;68.06;99490.50;4130375;28;20096;-60
2021/12/04 09:19:38;;;;;;;12.80;7.03;;;;;;;5.12;68.25;99482.81;4129558;28;20050;-58
2021/12/04 09:21:41;;;;;;;11.30;7.90;;;;;;;5.14;68.32;99481.16;4118834;28;20396;-56
2021/12/04 09:23:49;;;;;;;10.73;7.50;;;;;;;5.16;68.36;99482.03;4126691;28;20046;-57
2021/12/04 09:25:55;;;;;;;10.35;7.63;;;;;;;5.19;68.25;99476.09;4127133;28;20460;-60
2021/12/04 09:28:12;;;;;;;11.77;7.40;;;;;;;5.24;68.27;99488.22;4125470;28;21584;-57
2021/12/04 09:30:38;;;;;;;13.93;8.30;;;;;;;5.29;68.23;99475.44;4126903;28;20035;-56
2021/12/04 09:35:30;;;;;;;11.70;8.13;;;;;;;5.22;68.13;99479.59;4118314;28;20117;-58
2021/12/04 09:59:41;;;;;;;9.45;6.82;;;;;;;5.65;67.10;99458.91;4116968;28;20043;-59
2021/12/04 10:13:55;;;;;;;9.03;6.17;;;;;;;6.14;66.66;99453.75;4117913;28;20081;-58
2021/12/04 10:16:32;;;;;;;9.40;6.68;;;;;;;6.19;65.91;99440.91;4125424;28;20120;-60
2021/12/04 10:18:58;;;;;;;9.15;7.03;;;;;;;6.20;66.00;99433.19;4124004;28;20180;-59
2021/12/04 10:21:17;;;;;;;9.35;6.70;;;;;;;6.16;65.76;99431.38;4123474;28;20046;-60
2021/12/04 10:33:13;;;;;;;11.10;7.18;;;;;;;6.13;65.75;99402.09;4119121;28;20049;-56
2021/12/04 10:35:19;;;;;;;9.77;7.15;;;;;;;6.13;65.66;99396.94;4118290;28;20129;-59
2021/12/04 10:37:27;;;;;;;9.38;6.93;;;;;;;6.10;65.23;99395.19;4126126;28;20046;-56
2021/12/04 10:39:30;;;;;;;9.07;6.88;;;;;;;6.09;65.25;99388.31;4127224;28;20042;-58
2021/12/04 10:41:36;;;;;;;11.23;7.30;;;;;;;6.12;65.39;99380.59;4124982;28;20046;-59
2021/12/04 10:43:39;;;;;;;10.35;7.38;;;;;;;6.10;65.13;99375.44;4124187;28;20054;-63
2021/12/04 10:45:46;;;;;;;9.13;6.82;;;;;;;6.16;65.44;99379.78;4123893;28;20125;-58
2021/12/04 10:47:56;;;;;;;9.38;7.07;;;;;;;6.17;64.93;99378.94;4121816;28;20065;-58
2021/12/04 10:50:10;;;;;;;9.52;7.28;;;;;;;6.22;64.75;99373.84;4124921;28;20169;-58
2021/12/04 10:52:31;;;;;;;10.40;7.65;;;;;;;6.22;64.82;99373.84;4129750;28;20078;-57
2021/12/04 10:54:39;;;;;;;10.00;7.10;;;;;;;6.24;65.10;99374.75;4125828;28;20042;-58
2021/12/04 10:57:00;;;;;;;10.18;7.97;;;;;;;6.31;65.09;99378.28;4131963;28;20042;-59
2021/12/04 11:01:41;;;;;;;11.85;7.88;;;;;;;6.40;64.67;99362.94;4132368;28;20495;-56
2021/12/04 11:03:51;;;;;;;10.27;7.15;;;;;;;6.47;64.93;99357.00;4128760;28;20034;-61
2021/12/04 11:18:44;;;;;;;9.40;7.13;;;;;;;6.55;64.22;99323.53;4119832;28;20046;-56
2021/12/04 11:26:12;;;;;;;15.10;8.13;;;;;;;6.83;64.07;99327.28;4113153;28;20060;-56
2021/12/04 11:28:25;;;;;;;11.52;8.20;;;;;;;6.87;63.87;99325.63;4124253;28;20043;-57
2021/12/04 11:38:03;;;;;;;11.70;8.07;;;;;;;6.74;62.98;99327.19;4132209;28;20042;-54
2021/12/04 11:40:32;;;;;;;;;;;;;;;6.54;63.37;99334.69;4125412;28;20100;-51
2021/12/04 11:42:40;;;;;;;10.07;7.45;;;;;;;6.62;63.61;99341.69;4131976;28;19922;-59
2021/12/04 11:44:51;;;;;;;11.10;8.07;;;;;;;6.70;63.19;99328.00;4130572;28;20035;-54
2021/12/04 11:46:57;;;;;;;9.48;7.22;;;;;;;6.69;63.36;99329.72;4132345;28;20407;-56
2021/12/04 11:49:09;;;;;;;10.43;7.65;;;;;;;6.79;63.59;99333.25;4125709;28;20045;-58
2021/12/04 11:51:15;;;;;;;11.65;7.75;;;;;;;6.87;63.42;99328.19;4123082;28;20042;-56
2021/12/04 11:53:21;;;;;;;10.65;7.50;;;;;;;6.95;63.24;99321.38;4126663;28;20042;-55
2021/12/04 11:55:26;;;;;;;10.68;7.88;;;;;;;6.99;63.18;99317.97;4121983;28;20081;-54